Pristina

Airport
ICAO code: 
BKPR
Summary
ICAO Region: 
EUR
Territory: 
Location: 
Slatina, Pristina,
Coordinates: 
Aerial View: 
42° 34' 22.08" N, 21° 2' 8.884" E
Metar
Observation
BKPR 260730Z 35009KT CAVOK 22/09 Q1022 NOSIG
Station
PRISHTINA
Date/Time
2022-05-26 07:30:00
Wind direction
350°
Wind speed
09 kts
Lowest cloud amount
clouds and visibility OK
Temperature
22°C
Dew point
9°C
Humidity
43%
QNH
1022 hPa
Weather condition
n/a

Description

Pristina International Airport is an international airport located 15 km southwest of Pristina, Kosovo. It is co-located with Slatina Air Base.

Climatology

Humid “subtropical” climate (Köppen climate classification Cfa) - characterized by hot, humid summers and cool winters. Significant amounts of precipitation occur in all seasons in most areas. Winter rainfall (and sometimes snowfall) is associated with large storms that the westerlies steer from west to east. Most summer rainfall occurs during thunderstorms.

Runways

Designator Length Width Surface Rops
17/35 2489 45 ASP Yes/Yes
Airport map: 
Aerial View: 

Accidents and Serious Incidents at or in the vicinity of BKPR

SKYbrary Partners:

Safety knowledge contributed by: